createdAt,value
2023-02-03T05:47:36.358Z,4.30
2023-02-03T05:50:04.383Z,4.30
2023-02-03T05:52:32.377Z,4.30
2023-02-03T05:55:00.318Z,4.40
2023-02-03T05:57:28.266Z,4.30
2023-02-03T05:59:56.158Z,4.30
2023-02-03T06:02:24.058Z,4.30
2023-02-03T06:04:53.369Z,4.30
2023-02-03T06:07:21.310Z,4.30
2023-02-03T06:09:49.357Z,4.20
2023-02-03T06:12:17.330Z,4.20
2023-02-03T06:14:45.227Z,4.20
2023-02-03T06:17:13.260Z,4.20
2023-02-03T06:19:41.195Z,4.20
2023-02-03T06:22:10.491Z,4.20
2023-02-03T06:24:38.575Z,4.20
2023-02-03T06:27:06.552Z,4.30
2023-02-03T06:29:34.416Z,4.30
2023-02-03T06:32:02.431Z,4.30
2023-02-03T06:34:30.846Z,4.30
2023-02-03T06:36:58.728Z,4.20
2023-02-03T06:39:27.972Z,4.20
2023-02-03T06:41:56.638Z,4.20
2023-02-03T06:44:24.702Z,4.30
2023-02-03T06:46:52.799Z,4.30
2023-02-03T06:49:20.871Z,4.30
2023-02-03T06:51:49.092Z,4.30
2023-02-03T06:54:17.070Z,4.30
2023-02-03T06:56:47.229Z,4.30
2023-02-03T06:59:15.232Z,4.40
2023-02-03T07:01:43.233Z,4.40
2023-02-03T07:04:11.171Z,4.40
2023-02-03T07:06:39.181Z,4.40
2023-02-03T07:09:08.259Z,4.40
2023-02-03T07:11:36.225Z,4.30
2023-02-03T07:14:05.567Z,4.40
2023-02-03T07:16:34.322Z,4.40
2023-02-03T07:19:02.204Z,4.40
2023-02-03T07:21:30.201Z,4.50
2023-02-03T07:23:58.465Z,4.50
2023-02-03T07:26:26.981Z,4.50
2023-02-03T07:28:55.082Z,4.50
2023-02-03T07:31:24.451Z,4.50
2023-02-03T07:33:52.450Z,4.50
2023-02-03T07:36:20.451Z,4.60
2023-02-03T07:38:48.452Z,4.60
2023-02-03T07:41:18.064Z,4.60
2023-02-03T07:43:46.331Z,4.60
2023-02-03T15:02:36.651Z,5.80
2023-02-03T15:05:39.036Z,5.80
2023-02-03T15:08:40.068Z,5.80
2023-02-03T15:11:30.266Z,5.80
2023-02-03T15:14:17.621Z,5.90
2023-02-03T15:16:57.005Z,5.90
2023-02-03T15:19:28.825Z,5.90
2023-02-03T15:21:56.900Z,5.90
2023-02-03T15:24:25.924Z,5.80
2023-02-03T15:26:56.189Z,5.80
2023-02-03T15:29:28.728Z,5.80
2023-02-03T15:32:03.144Z,5.80
2023-02-03T15:34:36.386Z,5.80
2023-02-03T15:37:09.556Z,5.80
2023-02-03T15:39:46.115Z,5.80
2023-02-03T15:42:20.995Z,5.70
2023-02-03T15:44:54.531Z,5.70
2023-02-03T15:47:29.365Z,5.70
2023-02-03T15:50:07.603Z,5.60
2023-02-03T15:52:38.743Z,5.60
2023-02-03T15:55:18.468Z,5.50
2023-02-03T15:57:49.398Z,5.50
2023-02-03T16:00:32.864Z,5.50
2023-02-03T16:03:03.672Z,5.50
2023-02-03T16:05:34.855Z,5.50
2023-02-03T16:08:29.632Z,5.50
2023-02-03T16:10:57.766Z,5.50
2023-02-03T16:13:27.496Z,5.50
2023-02-03T16:16:05.832Z,5.50
2023-02-03T16:18:36.776Z,5.60
2023-02-03T16:21:07.053Z,5.60
2023-02-03T16:23:35.053Z,5.60
2023-02-03T16:26:05.289Z,5.60
2023-02-03T16:28:51.059Z,5.70
2023-02-03T16:31:38.364Z,5.70
2023-02-03T16:34:32.979Z,5.70
2023-02-03T16:37:20.509Z,5.60
2023-02-03T16:40:06.073Z,5.60
2023-02-03T16:42:56.921Z,5.60
2023-02-03T16:45:43.308Z,5.60
2023-02-03T16:48:30.238Z,5.60
2023-02-03T16:50:59.772Z,5.50
2023-02-03T16:53:31.940Z,5.50
2023-02-03T16:56:02.488Z,5.50
2023-02-03T16:58:30.900Z,5.40
2023-02-03T17:01:01.158Z,5.50
2023-02-03T17:03:29.868Z,5.40
2023-02-03T17:05:58.681Z,5.30
2023-02-03T17:08:29.060Z,5.30
2023-02-03T17:10:57.235Z,5.30
2023-02-03T17:13:25.528Z,5.20
2023-02-03T17:15:53.671Z,5.20
2023-02-03T17:18:22.711Z,5.20
2023-02-03T17:20:50.735Z,5.10
2023-02-03T17:23:18.900Z,5.10
2023-02-03T17:25:50.334Z,5.10
2023-02-03T17:28:18.641Z,5.10
2023-02-03T17:30:46.679Z,5.10
2023-02-03T17:33:14.589Z,5.10
2023-02-03T17:35:44.543Z,5.10
2023-02-03T17:38:14.520Z,5.10
2023-02-03T17:54:36.698Z,5.10
2023-02-03T17:57:05.097Z,5.10
2023-02-03T17:59:37.647Z,5.10
2023-02-03T18:02:05.605Z,5.10
2023-02-03T18:04:34.922Z,5.00
2023-02-03T18:07:02.809Z,5.00
2023-02-03T18:09:31.121Z,5.00
2023-02-03T18:11:59.053Z,5.00
2023-02-03T18:14:27.173Z,5.00
2023-02-03T18:16:56.538Z,4.90
2023-02-03T18:19:24.588Z,4.90
2023-02-03T18:21:52.543Z,4.90
2023-02-03T18:24:22.488Z,4.90
2023-02-03T18:26:52.671Z,4.90
2023-02-03T18:29:21.177Z,4.90
2023-02-03T18:31:49.666Z,4.80
2023-02-03T18:34:19.048Z,4.90
2023-02-03T18:36:47.259Z,4.90
2023-02-03T18:39:18.262Z,4.80
2023-02-03T18:41:46.274Z,4.80
2023-02-03T18:44:14.256Z,4.90
2023-02-03T18:46:42.224Z,4.90
2023-02-03T18:49:10.431Z,4.90
2023-02-03T18:51:39.882Z,4.90
2023-02-03T18:54:07.864Z,4.90
2023-02-03T18:56:35.966Z,4.90
2023-02-03T18:59:08.799Z,4.90
2023-02-03T19:01:38.868Z,4.90
2023-02-03T19:04:07.665Z,4.90
2023-02-03T19:06:36.268Z,4.90
2023-02-03T19:09:06.474Z,4.80
2023-02-03T19:11:35.041Z,4.80
2023-02-03T19:14:02.992Z,4.90
2023-02-03T19:16:31.651Z,4.80
2023-02-03T19:18:59.608Z,4.80
2023-02-03T19:21:27.970Z,4.80
2023-02-03T19:23:56.013Z,4.80
2023-02-03T19:26:27.743Z,4.80
2023-02-03T19:28:56.324Z,4.70
2023-02-03T19:31:24.499Z,4.80
2023-02-03T19:33:52.712Z,4.70
2023-02-03T19:36:20.724Z,4.70
2023-02-03T19:38:49.007Z,4.70
2023-02-03T19:41:17.065Z,4.70
2023-02-03T19:43:47.764Z,4.70
2023-02-03T19:46:15.823Z,4.70
2023-02-03T19:48:43.793Z,4.70
2023-02-03T19:51:12.147Z,4.70
2023-02-03T19:53:40.252Z,4.60
2023-02-03T19:56:08.321Z,4.60
2023-02-03T19:58:36.459Z,4.60
2023-02-03T20:01:06.018Z,4.60
2023-02-03T20:03:34.031Z,4.60
2023-02-03T20:06:02.040Z,4.60
2023-02-03T20:08:30.038Z,4.60
2023-02-03T20:10:58.041Z,4.60
2023-02-03T20:13:26.038Z,4.60
2023-02-03T20:15:54.387Z,4.60
2023-02-03T20:18:23.790Z,4.60
2023-02-03T20:20:52.366Z,4.60
2023-02-03T20:23:20.424Z,4.60
2023-02-03T20:25:50.080Z,4.60
2023-02-03T20:28:18.229Z,4.70
2023-02-03T20:30:46.618Z,4.60
2023-02-03T20:33:14.733Z,4.60
2023-02-03T20:35:44.064Z,4.60
2023-02-03T20:38:12.054Z,4.60
2023-02-03T20:40:40.118Z,4.60
2023-02-03T20:43:16.386Z,4.60
2023-02-03T20:45:45.050Z,4.60
2023-02-03T20:48:14.755Z,4.60
2023-02-03T20:50:47.236Z,4.60
2023-02-03T20:53:17.192Z,4.50
2023-02-03T20:55:45.247Z,4.50
2023-02-03T20:58:18.784Z,4.50
